Time;durP1;ratioP1;P1;durP2;ratioP2;P2;SDS_P1;SDS_P2;PMS_P1;PMS_P2;Temp;Humidity;BMP_temperature;BMP_pressure;BME280_temperature;BME280_humidity;BME280_pressure;Samples;Min_cycle;Max_cycle;Signal;HPM_P1;HPM_P2
2023/05/14 00:05:39;;;;;;;4.70;3.58;;;;;;;11.79;64.99;98098.09;10418782;28;20061;-68
2023/05/14 00:10:59;;;;;;;5.55;3.90;;;;;;;11.67;65.49;98101.50;10419364;28;20546;-68
2023/05/14 00:16:20;;;;;;;5.95;4.28;;;;;;;11.63;65.74;98094.91;10419267;28;20554;-67
2023/05/14 00:21:41;;;;;;;5.80;4.13;;;;;;;11.55;66.43;98081.09;10418161;28;20117;-68
2023/05/14 00:27:02;;;;;;;5.47;4.40;;;;;;;11.55;66.94;98080.38;10417718;28;20109;-68
2023/05/14 00:32:23;;;;;;;4.43;4.00;;;;;;;11.51;67.05;98080.09;10417728;28;20112;-68
2023/05/14 00:37:45;;;;;;;4.70;3.60;;;;;;;11.50;67.49;98079.38;10416785;28;20038;-68
2023/05/14 00:43:06;;;;;;;5.30;3.83;;;;;;;11.56;67.71;98088.16;10417148;28;20490;-68
2023/05/14 00:48:27;;;;;;;5.53;4.32;;;;;;;11.65;67.66;98081.06;10417789;28;20112;-68
2023/05/14 00:53:48;;;;;;;7.82;4.20;;;;;;;11.72;68.13;98083.69;10403062;28;20147;-68
2023/05/14 00:59:08;;;;;;;6.80;5.13;;;;;;;11.82;67.56;98083.69;10402668;28;20126;-68
2023/05/14 01:04:29;;;;;;;5.03;3.63;;;;;;;11.82;67.59;98080.16;10415932;28;20133;-68
2023/05/14 01:10:06;;;;;;;6.25;4.07;;;;;;;11.86;67.47;98074.81;10403033;28;20121;-68
2023/05/14 01:15:29;;;;;;;6.55;4.43;;;;;;;11.79;67.49;98067.34;10404147;28;20077;-68
2023/05/14 01:20:51;;;;;;;5.53;4.40;;;;;;;11.75;67.79;98068.50;10388481;28;20112;-68
2023/05/14 01:26:11;;;;;;;12.10;4.32;;;;;;;11.83;67.80;98065.56;10401648;28;20041;-67
2023/05/14 01:31:32;;;;;;;7.35;4.90;;;;;;;11.81;67.64;98064.69;10415346;28;20116;-68
2023/05/14 01:36:52;;;;;;;7.65;4.70;;;;;;;11.78;67.22;98060.28;10387781;28;20149;-68
2023/05/14 01:42:13;;;;;;;6.50;4.22;;;;;;;11.70;68.04;98058.41;10415878;28;20041;-68
2023/05/14 01:47:34;;;;;;;6.47;4.70;;;;;;;11.62;67.52;98055.03;10400776;28;20578;-68
2023/05/14 01:52:55;;;;;;;6.13;4.60;;;;;;;11.57;67.61;98050.50;10414583;28;20176;-68
2023/05/14 01:58:16;;;;;;;5.82;4.25;;;;;;;11.56;68.14;98046.22;10401008;28;20037;-69
2023/05/14 02:03:37;;;;;;;7.32;4.90;;;;;;;11.52;68.67;98034.78;10437602;28;20131;-67
2023/05/14 02:08:58;;;;;;;8.27;5.63;;;;;;;11.52;68.92;98028.47;10427841;28;20120;-68
2023/05/14 02:14:18;;;;;;;7.05;5.15;;;;;;;11.52;68.32;98025.66;10441679;28;20041;-68
2023/05/14 02:19:39;;;;;;;7.28;4.70;;;;;;;11.54;69.08;98029.31;10456714;28;20473;-68
2023/05/14 02:25:00;;;;;;;6.43;4.65;;;;;;;11.61;68.84;98031.22;10427892;28;20052;-68
2023/05/14 02:30:20;;;;;;;7.40;4.68;;;;;;;11.58;68.61;98040.78;10427365;28;20116;-68
2023/05/14 02:35:41;;;;;;;7.18;5.65;;;;;;;11.57;69.22;98035.78;10441575;28;20112;-69
2023/05/14 02:41:02;;;;;;;9.10;5.00;;;;;;;11.59;69.41;98035.94;10455656;28;20531;-68
2023/05/14 02:46:23;;;;;;;7.25;5.60;;;;;;;11.59;69.45;98031.06;10426974;28;20573;-68
2023/05/14 02:51:43;;;;;;;7.55;5.68;;;;;;;11.60;69.98;98034.59;10455570;28;20187;-68
2023/05/14 02:57:04;;;;;;;8.55;5.65;;;;;;;11.55;69.60;98019.59;10441346;28;20045;-68
2023/05/14 03:02:24;;;;;;;8.68;5.95;;;;;;;11.56;69.85;98025.94;10448090;28;20203;-68
2023/05/14 03:07:45;;;;;;;9.00;6.47;;;;;;;11.55;70.33;98022.41;10448001;28;20073;-68
2023/05/14 03:13:06;;;;;;;7.82;6.00;;;;;;;11.59;70.80;98021.97;10463077;28;20132;-68
2023/05/14 03:18:29;;;;;;;7.60;5.30;;;;;;;11.57;70.65;98022.53;10448233;28;20122;-68
2023/05/14 03:23:51;;;;;;;8.70;6.00;;;;;;;11.60;70.85;98021.34;10462526;28;20486;-68
2023/05/14 03:29:11;;;;;;;7.45;5.65;;;;;;;11.62;71.00;98021.50;10447435;28;20076;-68
2023/05/14 03:34:33;;;;;;;9.35;5.93;;;;;;;11.61;70.79;98019.28;10433322;28;20044;-68
2023/05/14 03:39:53;;;;;;;9.65;6.20;;;;;;;11.58;70.80;98012.84;10462041;28;20116;-68
2023/05/14 03:45:14;;;;;;;7.00;5.97;;;;;;;11.48;71.52;98014.91;10446698;28;20045;-68
2023/05/14 03:50:34;;;;;;;8.93;6.18;;;;;;;11.45;71.38;98016.13;10446667;28;20593;-67
2023/05/14 03:55:55;;;;;;;6.88;5.45;;;;;;;11.49;71.70;98013.63;10418736;28;20087;-69
2023/05/14 04:01:16;;;;;;;10.00;6.55;;;;;;;11.57;72.04;98008.56;10445795;28;20079;-68
2023/05/14 04:06:36;;;;;;;8.15;6.20;;;;;;;11.59;71.35;98008.72;10431829;28;20037;-68
2023/05/14 04:11:57;;;;;;;8.98;6.78;;;;;;;11.57;71.75;98010.63;10444644;28;20116;-68
2023/05/14 04:17:18;;;;;;;11.07;6.63;;;;;;;11.63;71.93;98011.78;10445648;28;20068;-68
2023/05/14 04:22:38;;;;;;;10.05;6.75;;;;;;;11.81;71.46;98000.38;10445296;28;20163;-68
2023/05/14 04:27:59;;;;;;;8.48;6.40;;;;;;;11.83;71.76;97998.44;10445234;28;20435;-68
2023/05/14 04:33:19;;;;;;;10.05;6.57;;;;;;;11.86;71.22;98007.69;10459757;28;20049;-67
2023/05/14 04:38:40;;;;;;;11.98;7.20;;;;;;;11.80;71.66;98005.22;10444745;28;20065;-68
2023/05/14 04:44:01;;;;;;;9.63;6.95;;;;;;;11.90;71.83;97996.78;10443968;28;20131;-69
2023/05/14 04:49:22;;;;;;;9.50;6.65;;;;;;;12.05;71.64;97993.56;10430566;28;20045;-68
2023/05/14 04:54:43;;;;;;;9.60;7.40;;;;;;;12.15;71.12;97987.91;10459073;28;20121;-68
2023/05/14 05:00:08;;;;;;;11.95;7.55;;;;;;;12.28;71.18;97996.50;10458686;28;20083;-68
2023/05/14 05:05:28;;;;;;;11.07;8.02;;;;;;;12.45;69.99;97992.69;10458660;28;20558;-69
2023/05/14 05:10:49;;;;;;;8.80;6.63;;;;;;;12.55;70.31;97992.59;10458470;28;20121;-68
2023/05/14 05:16:10;;;;;;;9.75;7.20;;;;;;;12.80;70.21;97992.78;10443293;28;20126;-69
2023/05/14 05:21:30;;;;;;;9.13;6.75;;;;;;;13.05;69.43;97981.03;10429073;28;20167;-68
2023/05/14 05:26:52;;;;;;;9.75;6.93;;;;;;;13.31;68.88;97981.91;10443033;28;20163;-69
2023/05/14 05:32:13;;;;;;;10.40;7.32;;;;;;;13.32;68.45;97985.47;10442809;28;20037;-69
2023/05/14 05:37:33;;;;;;;10.32;7.53;;;;;;;13.36;67.78;97985.72;10442507;28;20116;-68
2023/05/14 05:42:54;;;;;;;10.73;7.50;;;;;;;13.39;67.08;97988.00;10442985;28;20112;-68
2023/05/14 05:48:15;;;;;;;11.05;7.22;;;;;;;13.52;67.04;97983.88;10457001;28;20045;-68
2023/05/14 05:53:35;;;;;;;8.35;6.88;;;;;;;14.13;67.00;97987.44;10428360;28;20479;-68
2023/05/14 05:58:56;;;;;;;12.13;7.28;;;;;;;15.20;64.75;97979.97;10456631;28;20076;-68
2023/05/14 06:04:16;;;;;;;10.43;8.05;;;;;;;16.53;59.94;97969.13;10441600;28;20124;-69
2023/05/14 06:09:37;;;;;;;12.73;8.45;;;;;;;17.36;57.26;97972.25;10441779;28;20117;-69
2023/05/14 06:14:58;;;;;;;12.35;7.80;;;;;;;18.10;56.19;97966.97;10427656;28;20116;-68
2023/05/14 06:20:18;;;;;;;8.70;6.70;;;;;;;18.95;50.03;97972.47;10441463;28;20116;-69
2023/05/14 06:25:39;;;;;;;10.60;6.38;;;;;;;18.91;49.81;97975.13;10441186;28;20087;-68
2023/05/14 06:31:00;;;;;;;12.75;6.78;;;;;;;18.77;47.82;97986.63;10441343;28;20069;-68
2023/05/14 06:36:21;;;;;;;7.22;5.95;;;;;;;18.91;48.75;97987.19;10447174;28;20121;-68
2023/05/14 06:41:41;;;;;;;7.00;5.93;;;;;;;19.84;45.51;97975.03;10464211;28;20124;-67
2023/05/14 06:47:10;;;;;;;8.88;5.90;;;;;;;20.14;44.57;97972.50;10435664;28;20068;-67
2023/05/14 06:52:30;;;;;;;6.72;4.90;;;;;;;20.42;43.35;97972.72;10463675;28;20132;-67
2023/05/14 06:57:51;;;;;;;7.63;5.68;;;;;;;19.97;43.03;97988.22;10463578;28;20049;-67
2023/05/14 07:03:11;;;;;;;8.48;6.10;;;;;;;19.67;43.63;97985.78;10448311;28;20674;-68
2023/05/14 07:08:32;;;;;;;9.18;5.68;;;;;;;19.20;44.87;97976.94;10448161;28;20063;-67
2023/05/14 07:13:53;;;;;;;9.25;6.00;;;;;;;19.50;45.32;97977.34;10434566;28;20479;-68
2023/05/14 07:19:13;;;;;;;8.25;5.75;;;;;;;20.06;43.29;97972.97;10447789;28;20120;-67
2023/05/14 07:24:35;;;;;;;8.52;5.63;;;;;;;20.30;42.77;97968.13;10462492;28;20049;-68
2023/05/14 07:29:55;;;;;;;5.35;4.70;;;;;;;21.56;40.97;97965.59;10462068;28;20129;-67
2023/05/14 07:35:16;;;;;;;6.70;4.55;;;;;;;22.98;37.00;97962.78;10462207;28;20486;-68
2023/05/14 07:40:37;;;;;;;5.65;4.90;;;;;;;24.05;34.28;97965.63;10446871;28;20072;-68
2023/05/14 07:45:58;;;;;;;5.90;4.97;;;;;;;24.68;33.66;97958.13;10460280;28;20167;-68
2023/05/14 07:51:19;;;;;;;7.03;4.15;;;;;;;24.39;34.26;97939.84;10461246;28;20120;-67
2023/05/14 07:56:40;;;;;;;7.63;4.90;;;;;;;24.65;33.29;97940.25;10461411;28;20120;-68
2023/05/14 08:02:00;;;;;;;7.80;4.47;;;;;;;25.38;30.96;97937.69;10445713;28;20521;-68
2023/05/14 08:07:21;;;;;;;5.38;4.05;;;;;;;26.76;30.21;97939.03;10445638;28;20475;-68
2023/05/14 08:12:42;;;;;;;6.40;3.53;;;;;;;26.63;30.27;97928.91;10460494;28;20069;-68
2023/05/14 08:18:03;;;;;;;3.90;2.97;;;;;;;28.95;26.07;97928.78;10445476;28;20052;-68
2023/05/14 08:23:23;;;;;;;6.15;2.55;;;;;;;25.13;28.54;97925.25;10445283;28;20390;-68
2023/05/14 08:28:44;;;;;;;2.72;2.03;;;;;;;21.94;34.17;97934.63;10444902;28;20453;-67
2023/05/14 08:34:05;;;;;;;2.55;2.13;;;;;;;23.82;32.06;97927.44;10445021;28;20135;-68
2023/05/14 08:39:25;;;;;;;2.90;2.05;;;;;;;22.08;34.06;97920.09;10459463;28;20178;-68
2023/05/14 08:44:52;;;;;;;2.50;1.90;;;;;;;20.42;36.56;97913.19;10459344;28;20072;-67
2023/05/14 08:50:13;;;;;;;4.97;2.88;;;;;;;19.71;38.58;97920.81;10444410;28;20399;-67
2023/05/14 08:55:34;;;;;;;3.08;2.10;;;;;;;20.49;38.73;97897.84;10443655;28;20076;-67
2023/05/14 09:00:55;;;;;;;3.28;2.17;;;;;;;20.85;38.05;97896.13;10429807;28;20068;-68
2023/05/14 09:06:16;;;;;;;2.35;1.75;;;;;;;23.20;35.25;97885.66;10429774;28;20052;-68
2023/05/14 09:11:47;;;;;;;3.90;2.13;;;;;;;24.52;32.84;97878.72;10443442;28;20502;-68
2023/05/14 09:17:07;;;;;;;3.22;1.30;;;;;;;24.32;30.99;97879.13;10430085;28;20444;-67
2023/05/14 09:22:30;;;;;;;3.30;1.50;;;;;;;23.06;32.17;97871.84;10429057;28;20041;-67
2023/05/14 09:27:53;;;;;;;;;;;;;;;22.04;34.61;97868.09;10429848;28;20056;-68
2023/05/14 09:33:25;;;;;;;3.80;2.30;;;;;;;20.80;36.12;97866.19;10457822;28;19920;-68
2023/05/14 09:38:46;;;;;;;5.80;2.58;;;;;;;19.77;38.39;97862.91;10428874;28;20048;-68
2023/05/14 09:44:06;;;;;;;5.70;2.50;;;;;;;19.57;39.74;97851.63;10457190;28;20045;-68
2023/05/14 09:49:28;;;;;;;4.45;2.60;;;;;;;19.94;39.82;97842.97;10442102;28;20406;-68
2023/05/14 09:54:52;;;;;;;3.42;2.08;;;;;;;20.28;39.41;97837.69;10442098;28;20542;-67
2023/05/14 10:00:14;;;;;;;2.70;1.92;;;;;;;20.81;39.26;97842.09;10441788;28;20068;-68
2023/05/14 10:05:36;;;;;;;3.85;2.45;;;;;;;20.09;38.60;97832.81;10456390;28;20053;-67
2023/05/14 10:10:57;;;;;;;3.92;2.00;;;;;;;20.10;39.38;97837.09;10440798;28;20485;-68
2023/05/14 10:16:20;;;;;;;2.53;2.05;;;;;;;20.55;38.58;97827.16;10428118;28;20513;-68
2023/05/14 10:21:43;;;;;;;2.35;1.35;;;;;;;20.28;37.33;97829.19;10442117;28;20462;-67
2023/05/14 10:27:04;;;;;;;2.55;1.67;;;;;;;20.05;37.69;97823.47;10428058;28;20115;-67
2023/05/14 10:32:25;;;;;;;2.70;1.27;;;;;;;19.61;38.36;97818.53;10427895;28;20065;-68
2023/05/14 10:37:46;;;;;;;1.75;1.23;;;;;;;18.87;38.90;97820.19;10427776;28;20064;-67
2023/05/14 10:43:08;;;;;;;2.88;1.25;;;;;;;18.86;39.78;97816.63;10441118;28;20041;-68
2023/05/14 10:48:29;;;;;;;2.20;1.58;;;;;;;18.80;40.11;97819.22;10427078;28;20052;-67
2023/05/14 10:53:50;;;;;;;2.65;1.45;;;;;;;20.07;38.72;97798.75;10427492;28;20060;-67
2023/05/14 10:59:10;;;;;;;2.35;1.40;;;;;;;20.01;37.58;97807.78;10440598;28;20049;-67
2023/05/14 11:04:31;;;;;;;2.33;1.30;;;;;;;19.24;38.19;97796.75;10426779;28;20077;-67
2023/05/14 11:09:52;;;;;;;3.60;1.50;;;;;;;18.44;39.94;97801.63;10440632;28;20065;-67
2023/05/14 11:15:14;;;;;;;2.78;1.55;;;;;;;17.56;42.61;97785.41;10440347;28;20068;-67
2023/05/14 11:20:35;;;;;;;2.53;1.55;;;;;;;17.12;44.10;97780.13;10443046;28;20116;-67
2023/05/14 11:25:56;;;;;;;5.47;1.88;;;;;;;17.30;43.93;97782.97;10462103;28;20037;-68
2023/05/14 11:31:17;;;;;;;3.42;1.70;;;;;;;17.73;43.83;97782.63;10448023;28;20434;-68
2023/05/14 11:36:38;;;;;;;3.35;1.42;;;;;;;18.21;43.03;97785.19;10461850;28;20486;-68
2023/05/14 11:42:01;;;;;;;1.67;1.30;;;;;;;18.25;42.12;97776.88;10461918;28;20167;-68
2023/05/14 11:47:22;;;;;;;4.93;1.60;;;;;;;18.19;41.90;97779.47;10447004;28;20124;-68
2023/05/14 11:52:43;;;;;;;2.20;1.45;;;;;;;18.32;41.94;97784.19;10461436;28;20513;-68
2023/05/14 11:58:03;;;;;;;2.78;1.55;;;;;;;18.09;41.98;97787.56;10461470;28;20486;-68
2023/05/14 12:03:25;;;;;;;2.22;1.33;;;;;;;18.54;41.29;97773.03;10432845;28;20499;-68
2023/05/14 12:08:46;;;;;;;4.05;1.10;;;;;;;19.11;40.31;97770.13;10432590;28;20383;-68
2023/05/14 12:14:12;;;;;;;1.40;0.93;;;;;;;20.60;39.06;97754.28;10432359;28;20064;-68
2023/05/14 12:19:33;;;;;;;4.13;1.05;;;;;;;21.46;35.33;97751.63;10445662;28;20076;-67
2023/05/14 12:24:57;;;;;;;3.92;1.00;;;;;;;21.90;34.51;97743.41;10431439;28;20064;-68
2023/05/14 12:30:18;;;;;;;1.65;0.90;;;;;;;21.59;33.39;97734.19;10459651;28;20048;-68
2023/05/14 12:35:42;;;;;;;1.90;1.00;;;;;;;21.51;33.18;97730.44;10431679;28;20112;-68
2023/05/14 12:41:02;;;;;;;2.38;1.02;;;;;;;21.32;32.73;97723.56;10430808;28;20037;-68
2023/05/14 12:46:24;;;;;;;1.92;0.80;;;;;;;20.84;33.82;97721.66;10459325;28;20494;-68
2023/05/14 12:51:45;;;;;;;3.00;1.05;;;;;;;20.53;34.17;97708.72;10459296;28;20041;-68
2023/05/14 12:57:06;;;;;;;2.15;0.70;;;;;;;20.23;34.63;97714.22;10444193;28;20111;-68
2023/05/14 13:02:27;;;;;;;2.28;0.80;;;;;;;20.38;33.83;97706.16;10427285;28;20518;-68
2023/05/14 13:07:48;;;;;;;1.98;0.60;;;;;;;20.44;33.68;97712.72;10443491;28;20048;-68
2023/05/14 13:13:10;;;;;;;1.83;0.65;;;;;;;20.18;33.44;97695.69;10443492;28;20124;-68
2023/05/14 13:18:31;;;;;;;1.85;0.60;;;;;;;20.28;32.97;97692.41;10458064;28;20045;-67
2023/05/14 13:23:52;;;;;;;1.70;0.70;;;;;;;20.74;33.41;97678.06;10458362;28;20053;-68
2023/05/14 13:29:13;;;;;;;1.13;0.70;;;;;;;20.62;33.27;97672.81;10458102;28;20045;-68
2023/05/14 13:34:35;;;;;;;1.50;0.70;;;;;;;19.97;34.13;97670.94;10442770;28;20091;-67
2023/05/14 13:39:56;;;;;;;1.42;0.80;;;;;;;19.34;35.29;97666.19;10457393;28;20045;-68
2023/05/14 13:45:17;;;;;;;1.35;0.80;;;;;;;18.93;36.58;97656.38;10441897;28;20514;-67
2023/05/14 13:50:38;;;;;;;2.03;0.93;;;;;;;18.70;37.55;97651.31;10442784;28;20116;-67
2023/05/14 13:56:00;;;;;;;1.40;0.80;;;;;;;18.28;38.36;97646.34;10428030;28;20398;-68
2023/05/14 14:01:22;;;;;;;3.08;1.08;;;;;;;17.73;39.86;97652.06;10441821;28;20115;-68
2023/05/14 14:06:43;;;;;;;9.30;0.80;;;;;;;17.38;41.22;97655.63;10442043;28;20045;-68
2023/05/14 14:12:04;;;;;;;2.22;1.00;;;;;;;17.04;42.08;97655.69;10427960;28;20138;-68
2023/05/14 14:17:25;;;;;;;2.42;0.90;;;;;;;16.85;42.97;97651.41;10428016;28;20056;-67
2023/05/14 14:22:46;;;;;;;3.20;0.88;;;;;;;16.76;43.70;97649.59;10456252;28;20111;-68
2023/05/14 14:28:07;;;;;;;3.15;1.30;;;;;;;16.53;44.96;97662.00;10441539;28;20551;-68
2023/05/14 14:33:27;;;;;;;2.47;1.00;;;;;;;16.35;45.91;97652.03;10441288;28;20041;-68
2023/05/14 14:38:48;;;;;;;2.53;1.20;;;;;;;16.37;46.25;97647.22;10427258;28;20073;-68
2023/05/14 14:44:08;;;;;;;1.85;1.10;;;;;;;16.31;46.36;97661.06;10427176;28;20067;-68
2023/05/14 14:49:31;;;;;;;2.85;0.90;;;;;;;16.20;45.89;97647.88;10456068;28;20170;-68
2023/05/14 14:54:52;;;;;;;2.53;0.90;;;;;;;16.21;45.62;97650.06;10442624;28;20076;-67
2023/05/14 15:00:14;;;;;;;1.73;0.80;;;;;;;16.12;44.95;97648.25;10449271;28;20068;-68
2023/05/14 15:05:35;;;;;;;1.58;0.70;;;;;;;16.01;45.05;97660.41;10448283;28;20128;-68
2023/05/14 15:10:55;;;;;;;1.38;0.98;;;;;;;15.82;45.75;97667.31;10448263;28;20056;-68
2023/05/14 15:16:16;;;;;;;2.65;1.10;;;;;;;15.58;46.89;97652.81;10420644;28;20111;-67
2023/05/14 15:21:36;;;;;;;2.67;1.13;;;;;;;15.49;47.63;97664.31;10462688;28;20071;-68
2023/05/14 15:26:57;;;;;;;1.73;1.00;;;;;;;15.23;48.96;97672.22;10462553;28;20124;-68
2023/05/14 15:32:18;;;;;;;2.33;0.98;;;;;;;15.07;49.92;97656.06;10462524;28;20075;-68
2023/05/14 15:37:40;;;;;;;2.25;1.13;;;;;;;14.93;50.82;97663.78;10433448;28;20151;-68
2023/05/14 15:43:00;;;;;;;2.53;1.30;;;;;;;14.89;51.86;97672.03;10433642;28;20120;-69
2023/05/14 15:48:21;;;;;;;2.13;1.48;;;;;;;14.72;52.33;97670.47;10446640;28;20129;-68
2023/05/14 15:53:42;;;;;;;2.97;1.08;;;;;;;14.69;52.87;97665.41;10461641;28;20468;-67
2023/05/14 15:59:02;;;;;;;3.17;1.10;;;;;;;14.62;53.22;97667.16;10461184;28;20207;-67
2023/05/14 16:04:24;;;;;;;1.95;1.00;;;;;;;14.58;53.93;97659.25;10432228;28;20184;-68
2023/05/14 16:09:44;;;;;;;2.38;1.30;;;;;;;14.41;55.00;97662.56;10417511;28;20124;-68
2023/05/14 16:15:06;;;;;;;2.80;1.17;;;;;;;14.37;55.68;97662.34;10460716;28;20116;-68
2023/05/14 16:20:27;;;;;;;2.42;1.10;;;;;;;14.36;56.12;97666.50;10432158;28;20421;-67
2023/05/14 16:25:48;;;;;;;1.52;0.90;;;;;;;14.15;56.74;97684.38;10460166;28;20049;-68
2023/05/14 16:31:08;;;;;;;2.85;1.00;;;;;;;13.92;57.69;97660.03;10445318;28;20120;-68
2023/05/14 16:36:30;;;;;;;3.17;0.77;;;;;;;13.85;58.90;97665.94;10459799;28;20407;-68
2023/05/14 16:41:50;;;;;;;2.58;1.27;;;;;;;13.66;59.57;97673.38;10459578;28;20049;-68
2023/05/14 16:47:11;;;;;;;2.33;0.90;;;;;;;13.52;60.60;97674.69;10459528;28;20044;-68
2023/05/14 16:52:33;;;;;;;1.38;0.70;;;;;;;13.39;61.38;97674.00;10459213;28;20119;-68
2023/05/14 16:57:54;;;;;;;2.55;0.80;;;;;;;13.18;62.24;97672.13;10430584;28;20120;-69
2023/05/14 17:03:14;;;;;;;1.60;0.90;;;;;;;13.02;63.79;97670.47;10459094;28;20527;-68
2023/05/14 17:08:35;;;;;;;1.85;0.70;;;;;;;12.90;65.15;97674.03;10458615;28;20497;-68
2023/05/14 17:13:56;;;;;;;2.80;0.70;;;;;;;12.75;66.31;97671.06;10429747;28;20117;-68
2023/05/14 17:19:17;;;;;;;0.90;0.50;;;;;;;12.67;66.55;97662.19;10458133;28;20080;-68
2023/05/14 17:24:38;;;;;;;1.60;0.75;;;;;;;12.59;67.23;97662.44;10458064;28;20045;-68
2023/05/14 17:30:00;;;;;;;1.30;0.60;;;;;;;12.53;67.65;97662.06;10457724;28;20061;-68
2023/05/14 17:35:20;;;;;;;2.00;0.90;;;;;;;12.54;68.11;97652.31;10429373;28;20243;-68
2023/05/14 17:40:41;;;;;;;1.77;0.93;;;;;;;12.52;69.29;97658.53;10428781;28;20504;-68
2023/05/14 17:46:03;;;;;;;1.77;0.93;;;;;;;12.46;69.53;97649.06;10457268;28;20048;-68
2023/05/14 17:51:24;;;;;;;1.35;0.95;;;;;;;12.44;70.31;97660.13;10442398;28;20501;-68
2023/05/14 17:56:46;;;;;;;1.80;0.82;;;;;;;12.38;71.02;97657.72;10457148;28;20535;-68
2023/05/14 18:02:07;;;;;;;2.03;0.98;;;;;;;12.33;70.72;97653.22;10442102;28;20384;-68
2023/05/14 18:07:28;;;;;;;3.00;1.23;;;;;;;12.25;71.88;97649.94;10414199;28;20052;-68
2023/05/14 18:12:49;;;;;;;2.42;1.10;;;;;;;12.21;72.57;97653.22;10441986;28;20065;-68
2023/05/14 18:18:10;;;;;;;2.63;1.27;;;;;;;12.10;73.27;97642.78;10441496;28;20526;-68
2023/05/14 18:23:30;;;;;;;1.80;1.10;;;;;;;12.00;73.89;97647.75;10441633;28;20426;-68
2023/05/14 18:28:51;;;;;;;1.58;0.88;;;;;;;12.00;74.52;97642.91;10428142;28;20072;-68
2023/05/14 18:34:12;;;;;;;2.13;1.10;;;;;;;11.95;74.29;97646.03;10450007;28;20069;-68
2023/05/14 18:39:32;;;;;;;2.30;1.05;;;;;;;11.99;73.85;97640.72;10435646;28;20052;-67
2023/05/14 18:44:53;;;;;;;2.17;0.95;;;;;;;11.93;73.91;97638.28;10435711;28;20478;-68
2023/05/14 18:50:14;;;;;;;2.70;0.90;;;;;;;11.94;74.49;97639.72;10449186;28;20498;-68
2023/05/14 18:55:35;;;;;;;2.60;1.10;;;;;;;12.03;75.00;97629.75;10463772;28;20494;-68
2023/05/14 19:00:57;;;;;;;1.85;1.13;;;;;;;12.08;74.03;97630.75;10463720;28;20069;-68
2023/05/14 19:06:18;;;;;;;1.77;1.10;;;;;;;11.97;74.28;97632.94;10463742;28;20515;-67
2023/05/14 19:11:39;;;;;;;2.88;1.40;;;;;;;11.98;74.69;97634.38;10464236;28;20112;-69
2023/05/14 19:17:00;;;;;;;2.50;1.63;;;;;;;11.99;75.04;97633.03;10434425;28;20052;-70
2023/05/14 19:22:20;;;;;;;4.88;2.28;;;;;;;12.01;76.63;97621.97;10434384;28;20068;-68
2023/05/14 19:27:42;;;;;;;3.53;1.92;;;;;;;11.95;75.83;97618.06;10447913;28;20116;-68
2023/05/14 19:33:03;;;;;;;3.35;2.22;;;;;;;11.86;76.02;97618.94;10462802;28;20073;-69
2023/05/14 19:38:23;;;;;;;2.58;1.90;;;;;;;11.79;75.86;97617.81;10462636;28;20076;-70
2023/05/14 19:43:44;;;;;;;3.78;2.20;;;;;;;11.72;76.58;97611.13;10461861;28;20068;-68
2023/05/14 19:49:05;;;;;;;5.35;2.60;;;;;;;11.81;78.22;97600.47;10446951;28;20075;-68
2023/05/14 19:54:25;;;;;;;4.85;3.10;;;;;;;11.85;77.67;97600.69;10446706;28;20449;-67
2023/05/14 19:59:46;;;;;;;5.93;3.17;;;;;;;11.89;77.37;97589.75;10447233;28;20441;-68
2023/05/14 20:05:10;;;;;;;5.65;2.63;;;;;;;11.94;77.17;97594.97;10461436;28;20049;-69
2023/05/14 20:10:31;;;;;;;5.25;3.90;;;;;;;11.88;77.04;97582.72;10432755;28;20052;-68
2023/05/14 20:15:53;;;;;;;5.55;3.15;;;;;;;11.84;77.42;97576.84;10461031;28;20112;-67
2023/05/14 20:21:14;;;;;;;2.75;2.03;;;;;;;11.74;78.17;97569.28;10460403;28;20152;-68
2023/05/14 20:26:35;;;;;;;3.75;2.35;;;;;;;11.73;79.48;97570.63;10460489;28;20116;-67
2023/05/14 20:31:56;;;;;;;5.05;2.63;;;;;;;11.73;78.58;97555.91;10460039;28;20069;-68
2023/05/14 20:37:22;;;;;;;4.40;2.67;;;;;;;11.67;79.76;97556.28;10459968;28;20049;-68
2023/05/14 20:42:43;;;;;;;4.15;2.40;;;;;;;11.68;79.57;97551.44;10444944;28;20121;-68
2023/05/14 20:48:08;;;;;;;4.40;2.65;;;;;;;11.73;79.67;97542.66;10430626;28;20120;-69
2023/05/14 20:53:29;;;;;;;3.20;2.70;;;;;;;11.86;79.85;97549.00;10458649;28;20115;-68
2023/05/14 20:58:50;;;;;;;3.47;2.28;;;;;;;11.90;79.01;97529.69;10444199;28;20136;-68
2023/05/14 21:04:11;;;;;;;4.10;2.40;;;;;;;11.88;79.83;97524.72;10459263;28;20120;-67
2023/05/14 21:09:32;;;;;;;5.40;2.60;;;;;;;11.87;80.11;97519.69;10459006;28;20116;-68
2023/05/14 21:14:53;;;;;;;4.28;2.58;;;;;;;11.89;79.79;97522.63;10443498;28;20145;-68
2023/05/14 21:20:14;;;;;;;3.28;2.38;;;;;;;11.91;79.90;97508.75;10458339;28;20080;-68
2023/05/14 21:25:35;;;;;;;7.82;4.72;;;;;;;11.86;79.66;97507.06;10429732;28;20593;-67
2023/05/14 21:30:55;;;;;;;4.80;3.00;;;;;;;11.77;79.89;97503.03;10457849;28;20159;-68
2023/05/14 21:36:16;;;;;;;6.57;3.10;;;;;;;11.69;79.84;97502.56;10429430;28;20068;-68
2023/05/14 21:41:36;;;;;;;3.78;2.50;;;;;;;11.69;80.24;97494.91;10428841;28;20049;-68
2023/05/14 21:46:57;;;;;;;4.30;2.60;;;;;;;11.70;80.85;97493.56;10442386;28;20470;-68
2023/05/14 21:52:18;;;;;;;5.72;2.92;;;;;;;11.68;80.67;97490.66;10414649;28;20376;-68
2023/05/14 21:57:39;;;;;;;5.20;3.08;;;;;;;11.66;81.13;97476.53;10442228;28;20051;-68
2023/05/14 22:03:00;;;;;;;4.30;3.38;;;;;;;11.68;81.04;97479.47;10428018;28;20166;-68
2023/05/14 22:08:20;;;;;;;5.75;3.90;;;;;;;11.58;81.01;97464.91;10441495;28;20120;-68
2023/05/14 22:13:41;;;;;;;4.70;3.50;;;;;;;11.61;81.09;97463.69;10456408;28;20072;-68
2023/05/14 22:19:01;;;;;;;4.65;3.50;;;;;;;11.56;81.46;97456.38;10441831;28;20120;-68
2023/05/14 22:24:25;;;;;;;5.70;3.53;;;;;;;11.55;82.05;97451.41;10441654;28;20112;-67
2023/05/14 22:29:45;;;;;;;6.28;3.83;;;;;;;11.59;81.43;97451.66;10441181;28;20117;-68
2023/05/14 22:35:06;;;;;;;5.60;3.58;;;;;;;11.59;82.51;97443.25;10441339;28;20064;-68
2023/05/14 22:40:28;;;;;;;5.20;3.58;;;;;;;11.54;81.94;97447.16;10440926;28;20122;-68
2023/05/14 22:45:49;;;;;;;6.22;3.47;;;;;;;11.57;82.27;97426.34;10427357;28;20154;-68
2023/05/14 22:51:09;;;;;;;4.28;3.50;;;;;;;11.57;83.12;97418.69;10413372;28;20041;-68
2023/05/14 22:56:30;;;;;;;4.82;3.25;;;;;;;11.63;83.25;97416.25;10440909;28;20052;-68
2023/05/14 23:01:50;;;;;;;4.05;3.22;;;;;;;11.71;83.46;97405.56;10426713;28;20448;-69
2023/05/14 23:07:11;;;;;;;5.93;3.10;;;;;;;11.74;83.32;97398.72;10441016;28;20048;-69
2023/05/14 23:12:32;;;;;;;3.95;2.78;;;;;;;11.80;83.52;97390.00;10440905;28;20163;-68
2023/05/14 23:17:52;;;;;;;4.57;3.00;;;;;;;11.83;83.74;97388.03;10445865;28;20147;-68
2023/05/14 23:23:13;;;;;;;4.13;3.25;;;;;;;11.84;83.61;97383.91;10448138;28;20115;-68
2023/05/14 23:28:34;;;;;;;4.03;2.88;;;;;;;11.79;83.64;97371.00;10462442;28;20116;-68
2023/05/14 23:33:55;;;;;;;3.55;2.92;;;;;;;11.72;83.62;97367.13;10447480;28;20175;-68
2023/05/14 23:39:16;;;;;;;4.10;3.20;;;;;;;11.76;83.81;97365.28;10447827;28;20119;-68
2023/05/14 23:44:37;;;;;;;4.60;3.20;;;;;;;11.74;83.79;97358.84;10447638;28;20148;-68
2023/05/14 23:49:57;;;;;;;4.28;3.50;;;;;;;11.72;83.71;97351.09;10461581;28;20045;-68
2023/05/14 23:55:18;;;;;;;6.20;3.78;;;;;;;11.67;83.66;97335.41;10446676;28;20547;-68
